Terminal Aerodrome Forecast
Issued by NWS Wilmington, NC

Current Version | Previous Version | Graphics & Text | Print | Product List | Glossary Off
Versions: 1 2 3 4 5 6 7 8 9 10 11 12

000
FTUS42 KILM 271720
TAFFLO
TAF
KFLO 271720Z 2718/2818 23008KT P6SM FEW040
     FM280000 20004KT P6SM SKC
     FM281200 25007KT P6SM SKC
     FM281700 26011G17KT P6SM SKC=

USA.gov is the U.S. government's official web portal to all federal, state and local government web resources and services.